Time;durP1;ratioP1;P1;durP2;ratioP2;P2;SDS_P1;SDS_P2;PMS_P1;PMS_P2;Temp;Humidity;BMP_temperature;BMP_pressure;BME280_temperature;BME280_humidity;BME280_pressure;Samples;Min_cycle;Max_cycle;Signal;HPM_P1;HPM_P2
2021/08/19 00:00:05;;;;;;;2.33;2.13;;;18.10;99.90;;;;;;4997140;28;20225;-70
2021/08/19 00:02:31;;;;;;;1.93;1.80;;;18.10;99.90;;;;;;4984582;28;20233;-71
2021/08/19 00:04:56;;;;;;;2.53;2.33;;;18.10;99.90;;;;;;4994196;28;20469;-71
2021/08/19 00:07:23;;;;;;;3.30;3.00;;;18.10;99.90;;;;;;4985997;28;20214;-70
2021/08/19 00:09:49;;;;;;;2.53;2.43;;;18.00;99.90;;;;;;4993468;28;20226;-70
2021/08/19 00:12:15;;;;;;;2.37;2.27;;;18.00;99.90;;;;;;5001677;28;20451;-69
2021/08/19 00:14:40;;;;;;;2.40;2.20;;;18.00;99.90;;;;;;5003424;28;20225;-70
2021/08/19 00:17:08;;;;;;;2.33;2.13;;;18.00;99.90;;;;;;4985603;28;20217;-71
2021/08/19 00:19:34;;;;;;;2.10;1.90;;;18.00;99.90;;;;;;5003945;28;20273;-70
2021/08/19 00:22:04;;;;;;;2.20;2.00;;;18.00;99.90;;;;;;5001953;28;20911;-71
2021/08/19 00:24:30;;;;;;;3.07;2.53;;;18.00;99.90;;;;;;5003725;28;20476;-71
2021/08/19 00:26:56;;;;;;;2.40;2.13;;;18.00;99.90;;;;;;4997943;28;20472;-70
2021/08/19 00:29:22;;;;;;;1.90;1.80;;;18.00;99.90;;;;;;4987323;28;20474;-70
2021/08/19 00:31:49;;;;;;;3.57;2.37;;;18.00;99.90;;;;;;4997407;28;20623;-70
2021/08/19 00:34:15;;;;;;;2.70;2.50;;;18.00;99.90;;;;;;4996219;28;20239;-70
2021/08/19 00:36:41;;;;;;;2.70;2.50;;;18.00;99.90;;;;;;5003121;28;20973;-71
2021/08/19 00:39:06;;;;;;;2.53;2.33;;;18.00;99.90;;;;;;4992756;28;20301;-71
2021/08/19 00:41:34;;;;;;;2.23;2.03;;;17.90;99.90;;;;;;5010181;28;20236;-70
2021/08/19 00:44:00;;;;;;;2.50;2.30;;;17.90;99.90;;;;;;4984087;28;20355;-70
2021/08/19 00:46:31;;;;;;;2.50;2.30;;;17.90;99.90;;;;;;4994918;28;20571;-70
2021/08/19 00:49:05;;;;;;;2.77;2.57;;;17.90;99.90;;;;;;4994437;28;20213;-71
2021/08/19 00:51:35;;;;;;;2.30;2.10;;;17.80;99.90;;;;;;5003301;28;20452;-70
2021/08/19 00:54:13;;;;;;;2.83;2.60;;;17.80;99.90;;;;;;4981388;28;20453;-70
2021/08/19 00:56:40;;;;;;;3.10;2.57;;;17.80;99.90;;;;;;4985389;28;20464;-70
2021/08/19 00:59:07;;;;;;;2.53;2.33;;;17.80;99.90;;;;;;4994298;28;20521;-70
2021/08/19 01:01:34;;;;;;;3.37;3.07;;;17.80;99.90;;;;;;4999541;28;20464;-71
2021/08/19 01:03:59;;;;;;;2.47;2.27;;;17.80;99.90;;;;;;4995664;28;20468;-71
2021/08/19 01:06:25;;;;;;;2.63;2.43;;;17.80;99.90;;;;;;4986356;28;20598;-70
2021/08/19 01:08:53;;;;;;;3.20;2.77;;;17.70;99.90;;;;;;4999175;28;20527;-70
2021/08/19 01:11:20;;;;;;;2.60;2.40;;;17.70;99.90;;;;;;4996075;28;20224;-70
2021/08/19 01:13:47;;;;;;;2.80;2.57;;;17.70;99.90;;;;;;4980858;28;20563;-71
2021/08/19 01:16:13;;;;;;;3.90;2.57;;;17.70;99.90;;;;;;4999487;28;20463;-70
2021/08/19 01:18:41;;;;;;;5.30;2.97;;;17.70;99.90;;;;;;4991948;28;20555;-70
2021/08/19 01:21:08;;;;;;;5.13;2.80;;;17.60;99.90;;;;;;4994172;28;20489;-71
2021/08/19 01:23:34;;;;;;;2.73;2.50;;;17.60;99.90;;;;;;5008189;28;20503;-70
2021/08/19 01:26:04;;;;;;;4.73;2.77;;;17.60;99.90;;;;;;5002063;28;20491;-70
2021/08/19 01:28:30;;;;;;;4.10;2.80;;;17.60;99.90;;;;;;5002576;28;20269;-70
2021/08/19 01:30:56;;;;;;;2.53;2.33;;;17.60;99.90;;;;;;4981741;28;20457;-71
2021/08/19 01:33:24;;;;;;;2.93;2.63;;;17.60;99.90;;;;;;4999938;28;20445;-70
2021/08/19 01:35:50;;;;;;;2.50;2.30;;;17.60;99.90;;;;;;4999516;28;20214;-70
2021/08/19 01:38:15;;;;;;;2.80;2.50;;;17.60;99.90;;;;;;5053876;28;20463;-70
2021/08/19 01:40:41;;;;;;;2.70;2.50;;;17.60;99.90;;;;;;5015471;28;20218;-70
2021/08/19 01:43:08;;;;;;;6.67;2.83;;;17.60;99.90;;;;;;5072014;27;20217;-70
2021/08/19 01:45:33;;;;;;;2.93;2.70;;;17.50;99.90;;;;;;5109322;28;20214;-69
2021/08/19 01:47:59;;;;;;;3.30;2.93;;;17.60;99.90;;;;;;5010501;28;20497;-71
2021/08/19 01:50:25;;;;;;;4.33;2.77;;;17.60;99.90;;;;;;4989626;28;20228;-71
2021/08/19 01:52:50;;;;;;;2.70;2.50;;;17.60;99.90;;;;;;5005300;28;20228;-71
2021/08/19 01:55:16;;;;;;;4.50;3.90;;;17.60;99.90;;;;;;4985431;28;20312;-70
2021/08/19 01:57:42;;;;;;;3.70;3.40;;;17.60;99.90;;;;;;5005768;28;20224;-70
2021/08/19 02:00:08;;;;;;;4.10;2.90;;;17.50;99.90;;;;;;5003942;28;20572;-71
2021/08/19 02:02:36;;;;;;;3.27;2.80;;;17.60;99.90;;;;;;5005372;28;20261;-70
2021/08/19 02:05:02;;;;;;;3.47;3.17;;;17.60;99.90;;;;;;4987335;28;20460;-71
2021/08/19 02:07:28;;;;;;;3.03;2.60;;;17.60;99.90;;;;;;5003953;28;20233;-71
2021/08/19 02:09:54;;;;;;;3.60;3.30;;;17.60;99.90;;;;;;5004135;28;21046;-71
2021/08/19 02:12:19;;;;;;;3.50;3.20;;;17.60;99.90;;;;;;4986250;28;20222;-70
2021/08/19 02:14:45;;;;;;;3.50;3.00;;;17.50;99.90;;;;;;4986240;28;20253;-70
2021/08/19 02:17:11;;;;;;;3.93;3.47;;;17.60;99.90;;;;;;4994063;28;20278;-70
2021/08/19 02:19:37;;;;;;;5.70;2.87;;;17.60;99.90;;;;;;4989501;28;20228;-71
2021/08/19 02:22:03;;;;;;;3.80;3.07;;;17.60;99.90;;;;;;4987606;28;20597;-71
2021/08/19 02:24:28;;;;;;;7.47;2.80;;;17.60;99.90;;;;;;5005344;28;20477;-70
2021/08/19 02:26:54;;;;;;;3.93;3.53;;;17.60;99.90;;;;;;4984423;28;20304;-70
2021/08/19 02:29:20;;;;;;;3.70;3.20;;;17.60;99.90;;;;;;4989247;28;20229;-70
2021/08/19 02:31:45;;;;;;;3.87;3.57;;;17.60;99.90;;;;;;5005764;28;20221;-70
2021/08/19 02:34:11;;;;;;;3.40;3.10;;;17.60;99.90;;;;;;5004016;28;20217;-71
2021/08/19 02:36:37;;;;;;;4.33;3.20;;;17.60;99.90;;;;;;4997131;28;20691;-70
2021/08/19 02:39:02;;;;;;;3.60;3.30;;;17.60;99.90;;;;;;5002924;28;20229;-69
2021/08/19 02:41:29;;;;;;;3.20;2.93;;;17.60;99.90;;;;;;4987128;28;20232;-71
2021/08/19 02:43:54;;;;;;;3.23;2.93;;;17.60;99.90;;;;;;5003190;28;20221;-71
2021/08/19 02:46:20;;;;;;;3.37;3.07;;;17.60;99.90;;;;;;4988779;28;20832;-70
2021/08/19 02:48:46;;;;;;;3.43;3.13;;;17.60;99.90;;;;;;5004908;28;20241;-71
2021/08/19 02:51:11;;;;;;;3.20;2.90;;;17.60;99.90;;;;;;4983715;28;20214;-71
2021/08/19 02:53:37;;;;;;;3.33;3.03;;;17.60;99.90;;;;;;5001420;28;20229;-69
2021/08/19 02:56:04;;;;;;;4.80;3.47;;;17.60;99.90;;;;;;5002827;28;20233;-71
2021/08/19 02:58:29;;;;;;;4.00;3.37;;;17.60;99.90;;;;;;4988922;28;20228;-70
2021/08/19 03:00:55;;;;;;;4.60;3.57;;;17.60;99.90;;;;;;5003372;28;20461;-71
2021/08/19 03:03:21;;;;;;;4.00;3.60;;;17.60;99.90;;;;;;4985528;28;20225;-70
2021/08/19 03:05:46;;;;;;;3.60;3.30;;;17.50;99.90;;;;;;5005900;28;20245;-70
2021/08/19 03:08:12;;;;;;;2.90;2.70;;;17.50;99.90;;;;;;5002098;28;20272;-70
2021/08/19 03:10:38;;;;;;;3.40;3.10;;;17.60;99.90;;;;;;4988693;28;20225;-70
2021/08/19 03:13:03;;;;;;;3.70;3.10;;;17.60;99.90;;;;;;5003760;28;20218;-70
2021/08/19 03:15:29;;;;;;;3.30;2.90;;;17.60;99.90;;;;;;4988105;28;20668;-70
2021/08/19 03:17:55;;;;;;;2.80;2.60;;;17.60;99.90;;;;;;4999451;28;20598;-70
2021/08/19 03:20:21;;;;;;;3.00;2.70;;;17.60;99.90;;;;;;4969179;28;20581;-70
2021/08/19 03:22:48;;;;;;;3.43;3.13;;;17.50;99.90;;;;;;4984149;28;20233;-70
2021/08/19 03:25:13;;;;;;;3.07;2.77;;;17.50;99.90;;;;;;5003574;28;20890;-70
2021/08/19 03:27:39;;;;;;;3.10;2.80;;;17.50;99.90;;;;;;4987855;28;20984;-70
2021/08/19 03:30:05;;;;;;;3.10;2.80;;;17.40;99.90;;;;;;4986320;28;20247;-70
2021/08/19 03:32:31;;;;;;;3.53;3.23;;;17.40;99.90;;;;;;4988373;28;20233;-71
2021/08/19 03:34:57;;;;;;;3.83;3.10;;;17.40;99.90;;;;;;4985844;28;20570;-70
2021/08/19 03:37:26;;;;;;;3.00;2.70;;;17.40;99.90;;;;;;4996238;28;20352;-70
2021/08/19 03:39:52;;;;;;;3.30;3.00;;;17.30;99.90;;;;;;5003907;28;20230;-71
2021/08/19 03:42:17;;;;;;;2.63;2.43;;;17.30;99.90;;;;;;4987419;28;20464;-69
2021/08/19 03:44:43;;;;;;;3.30;3.00;;;17.30;99.90;;;;;;4987563;28;20225;-70
2021/08/19 03:47:11;;;;;;;3.67;3.33;;;17.30;99.90;;;;;;4986123;28;20763;-69
2021/08/19 03:49:37;;;;;;;3.70;3.30;;;17.20;99.90;;;;;;5004548;28;20240;-70
2021/08/19 03:52:03;;;;;;;5.03;3.60;;;17.30;99.90;;;;;;4985445;28;20950;-70
2021/08/19 03:54:29;;;;;;;3.33;3.03;;;17.30;99.90;;;;;;4984500;28;20759;-70
2021/08/19 03:56:54;;;;;;;5.90;2.97;;;17.30;99.90;;;;;;4999110;28;20465;-70
2021/08/19 03:59:21;;;;;;;4.03;3.10;;;17.30;99.90;;;;;;4997330;28;20233;-70
2021/08/19 04:01:47;;;;;;;4.40;4.00;;;17.30;99.90;;;;;;5004247;28;20239;-70
2021/08/19 04:04:13;;;;;;;3.40;3.10;;;17.30;99.90;;;;;;5003566;28;20460;-70
2021/08/19 04:06:39;;;;;;;4.30;3.70;;;17.30;99.90;;;;;;4986702;28;20909;-70
2021/08/19 04:09:05;;;;;;;4.57;3.90;;;17.30;99.90;;;;;;5002135;28;20263;-70
2021/08/19 04:11:31;;;;;;;4.33;3.93;;;17.30;99.90;;;;;;4979683;28;20981;-70
2021/08/19 04:13:56;;;;;;;4.37;3.83;;;17.30;99.90;;;;;;4987344;28;20482;-71
2021/08/19 04:16:22;;;;;;;9.40;4.40;;;17.30;99.90;;;;;;5003609;28;20229;-70
2021/08/19 04:18:48;;;;;;;4.33;3.80;;;17.30;99.90;;;;;;5004169;28;20228;-70
2021/08/19 04:21:14;;;;;;;8.00;4.20;;;17.30;99.90;;;;;;4985624;28;20217;-69
2021/08/19 04:23:43;;;;;;;5.13;4.23;;;17.20;99.90;;;;;;5003581;28;20619;-69
2021/08/19 04:26:09;;;;;;;37.87;6.43;;;17.20;99.90;;;;;;5003222;28;20259;-69
2021/08/19 04:28:35;;;;;;;14.10;4.27;;;17.20;99.90;;;;;;4987332;28;20461;-70
2021/08/19 04:31:00;;;;;;;5.53;4.00;;;17.20;99.90;;;;;;4981514;28;20469;-70
2021/08/19 04:33:28;;;;;;;8.33;4.50;;;17.20;99.90;;;;;;4995630;28;20224;-70
2021/08/19 04:35:55;;;;;;;4.20;3.80;;;17.20;99.90;;;;;;5001466;28;20226;-70
2021/08/19 04:38:21;;;;;;;5.23;4.43;;;17.20;99.90;;;;;;4987372;28;20470;-70
2021/08/19 04:40:46;;;;;;;7.30;4.67;;;17.20;99.90;;;;;;4986351;28;20449;-70
2021/08/19 04:43:12;;;;;;;4.20;3.80;;;17.20;99.90;;;;;;5001820;28;20209;-70
2021/08/19 04:45:38;;;;;;;3.60;3.27;;;17.20;99.90;;;;;;5002477;28;20832;-70
2021/08/19 04:48:04;;;;;;;3.63;2.70;;;17.10;99.90;;;;;;5002955;28;20722;-70
2021/08/19 04:50:29;;;;;;;3.50;3.20;;;17.20;99.90;;;;;;4987827;28;20224;-70
2021/08/19 04:52:55;;;;;;;3.17;2.87;;;17.20;99.90;;;;;;4985631;28;20460;-70
2021/08/19 04:55:21;;;;;;;5.10;2.90;;;17.20;99.90;;;;;;4986316;28;20221;-70
2021/08/19 04:57:47;;;;;;;3.53;3.23;;;17.20;99.90;;;;;;5003490;28;20377;-71
2021/08/19 05:00:13;;;;;;;2.87;2.67;;;17.20;99.90;;;;;;5001120;28;20217;-70
2021/08/19 05:02:38;;;;;;;2.60;2.40;;;17.20;99.90;;;;;;5003241;28;20307;-70
2021/08/19 05:05:05;;;;;;;2.50;2.30;;;17.10;99.90;;;;;;5001042;28;20544;-71
2021/08/19 05:07:31;;;;;;;2.87;2.60;;;17.10;99.90;;;;;;4985536;28;20249;-70
2021/08/19 05:09:57;;;;;;;2.50;2.30;;;17.10;99.90;;;;;;5001814;28;20837;-70
2021/08/19 05:12:23;;;;;;;3.17;2.73;;;17.10;99.90;;;;;;4986806;28;20225;-70
2021/08/19 05:14:49;;;;;;;3.17;2.87;;;17.20;99.90;;;;;;4981787;28;20507;-70
2021/08/19 05:17:14;;;;;;;2.90;2.70;;;17.10;99.90;;;;;;4998391;28;20231;-70
2021/08/19 05:19:40;;;;;;;2.30;2.10;;;17.10;99.90;;;;;;4998004;28;20221;-70
2021/08/19 05:22:06;;;;;;;3.03;2.70;;;17.10;99.90;;;;;;4996261;28;20218;-70
2021/08/19 05:24:31;;;;;;;2.90;2.63;;;17.20;99.90;;;;;;4986378;28;20275;-69
2021/08/19 05:26:57;;;;;;;2.83;2.40;;;17.20;99.90;;;;;;5003607;28;20221;-71
2021/08/19 05:29:22;;;;;;;3.00;2.70;;;17.20;99.90;;;;;;4993186;28;20216;-70
2021/08/19 05:31:48;;;;;;;2.93;2.73;;;17.20;99.90;;;;;;4993329;28;20249;-70
2021/08/19 05:34:14;;;;;;;3.67;2.60;;;17.20;99.90;;;;;;5008711;28;20217;-70
2021/08/19 05:36:41;;;;;;;4.10;3.37;;;17.10;99.90;;;;;;4992757;28;20567;-70
2021/08/19 05:39:07;;;;;;;3.27;2.80;;;17.10;99.90;;;;;;4988992;28;20308;-69
2021/08/19 05:41:33;;;;;;;5.80;3.10;;;17.10;99.90;;;;;;4990539;28;20548;-70
2021/08/19 05:43:58;;;;;;;4.30;3.00;;;17.10;99.90;;;;;;5001229;28;20305;-71
2021/08/19 05:46:24;;;;;;;3.07;2.80;;;17.10;99.90;;;;;;5007605;28;20225;-71
2021/08/19 05:48:50;;;;;;;3.70;3.40;;;17.10;99.90;;;;;;5009162;28;20225;-70
2021/08/19 05:51:16;;;;;;;4.27;3.87;;;17.10;99.90;;;;;;5006336;28;20224;-69
2021/08/19 05:53:42;;;;;;;2.97;2.63;;;17.10;99.90;;;;;;5000008;28;20217;-70
2021/08/19 05:56:08;;;;;;;5.17;3.80;;;17.10;99.90;;;;;;5006988;28;20459;-69
2021/08/19 05:58:34;;;;;;;3.80;3.40;;;17.10;99.90;;;;;;4991240;28;20484;-71
2021/08/19 06:01:00;;;;;;;4.50;3.17;;;17.20;99.90;;;;;;4990239;28;20217;-71
2021/08/19 06:03:26;;;;;;;4.33;3.93;;;17.10;99.90;;;;;;4990994;28;20961;-70
2021/08/19 06:05:51;;;;;;;3.40;3.10;;;17.20;99.90;;;;;;4989883;28;20226;-71
2021/08/19 06:08:18;;;;;;;3.50;3.20;;;17.20;99.90;;;;;;5004189;28;20240;-70
2021/08/19 06:10:43;;;;;;;3.90;3.50;;;17.20;99.90;;;;;;4984033;28;20312;-69
2021/08/19 06:13:09;;;;;;;4.50;3.33;;;17.20;99.90;;;;;;4997535;28;20485;-71
2021/08/19 06:15:35;;;;;;;3.50;3.20;;;17.20;99.90;;;;;;4994334;28;20320;-71
2021/08/19 06:18:01;;;;;;;3.40;3.10;;;17.20;99.90;;;;;;5001675;28;20581;-70
2021/08/19 06:20:27;;;;;;;3.40;3.10;;;17.20;99.90;;;;;;4986954;28;20705;-71
2021/08/19 06:22:54;;;;;;;3.80;3.47;;;17.20;99.90;;;;;;5002061;28;20229;-71
2021/08/19 06:25:20;;;;;;;3.93;3.60;;;17.20;99.90;;;;;;5001294;28;20267;-70
2021/08/19 06:27:46;;;;;;;4.13;3.30;;;17.20;99.90;;;;;;4971161;28;20480;-71
2021/08/19 06:30:13;;;;;;;4.33;3.97;;;17.30;99.90;;;;;;5001442;28;20464;-71
2021/08/19 06:32:39;;;;;;;4.00;3.53;;;17.30;99.90;;;;;;4984361;28;20453;-70
2021/08/19 06:35:06;;;;;;;4.20;3.30;;;17.30;99.90;;;;;;4998739;28;20870;-71
2021/08/19 06:37:31;;;;;;;3.50;3.20;;;17.30;99.90;;;;;;5002839;28;20217;-70
2021/08/19 06:39:58;;;;;;;3.23;2.93;;;17.30;99.90;;;;;;4985478;28;20453;-71
2021/08/19 06:42:23;;;;;;;3.30;2.93;;;17.30;99.90;;;;;;4987389;28;20226;-70
2021/08/19 06:44:50;;;;;;;3.03;2.60;;;17.30;99.90;;;;;;5003422;28;20598;-71
2021/08/19 06:47:15;;;;;;;3.13;2.87;;;17.30;99.90;;;;;;4982414;28;20234;-71
2021/08/19 06:49:43;;;;;;;3.13;2.90;;;17.40;99.90;;;;;;4987116;28;20525;-72
2021/08/19 06:52:09;;;;;;;3.17;2.87;;;17.40;99.90;;;;;;4985642;28;20229;-71
2021/08/19 06:54:35;;;;;;;3.23;2.73;;;17.40;99.90;;;;;;5002373;28;21019;-70
2021/08/19 06:57:01;;;;;;;2.80;2.50;;;17.40;99.90;;;;;;4985331;28;20721;-71
2021/08/19 06:59:27;;;;;;;2.43;2.23;;;17.40;99.90;;;;;;5003775;28;20220;-71
2021/08/19 07:01:53;;;;;;;3.57;3.27;;;17.40;99.90;;;;;;5001034;28;20460;-70
2021/08/19 07:04:19;;;;;;;3.20;2.67;;;17.50;99.90;;;;;;4987182;28;20456;-71
2021/08/19 07:06:46;;;;;;;3.70;2.97;;;17.50;99.90;;;;;;5002734;28;20742;-71
2021/08/19 07:09:12;;;;;;;3.10;2.80;;;17.50;99.90;;;;;;5023062;28;20305;-71
2021/08/19 07:11:38;;;;;;;3.60;3.30;;;17.50;99.90;;;;;;4993113;28;20475;-71
2021/08/19 07:14:04;;;;;;;3.57;2.83;;;17.50;99.90;;;;;;4984814;28;20452;-71
2021/08/19 07:16:30;;;;;;;3.83;2.50;;;17.50;99.90;;;;;;5002112;28;20879;-70
2021/08/19 07:18:56;;;;;;;3.73;2.83;;;17.50;99.90;;;;;;5001090;28;20464;-70
2021/08/19 07:21:21;;;;;;;3.50;2.83;;;17.60;99.90;;;;;;4983258;28;20218;-71
2021/08/19 07:23:47;;;;;;;2.80;2.57;;;17.50;99.90;;;;;;4989970;28;20233;-70
2021/08/19 07:26:13;;;;;;;3.60;3.27;;;17.60;99.90;;;;;;5000755;28;20229;-71
2021/08/19 07:28:39;;;;;;;3.43;3.13;;;17.60;99.90;;;;;;4983900;28;20876;-71
2021/08/19 07:31:04;;;;;;;4.03;2.90;;;17.60;99.90;;;;;;4998041;28;20222;-71
2021/08/19 07:33:30;;;;;;;3.90;3.30;;;17.70;99.90;;;;;;4991974;28;20545;-70
2021/08/19 07:35:56;;;;;;;4.27;3.50;;;17.70;99.90;;;;;;5000520;28;20275;-71
2021/08/19 07:38:22;;;;;;;3.23;2.93;;;17.70;99.90;;;;;;5002794;28;20214;-71
2021/08/19 07:40:48;;;;;;;3.23;2.93;;;17.80;99.90;;;;;;5001046;28;20221;-71
2021/08/19 07:43:15;;;;;;;4.17;3.77;;;17.80;99.90;;;;;;4998841;28;20217;-71
2021/08/19 07:45:41;;;;;;;4.40;3.30;;;17.80;99.90;;;;;;4986068;28;20452;-71
2021/08/19 07:48:13;;;;;;;3.67;3.20;;;17.80;99.90;;;;;;4999879;28;20617;-71
2021/08/19 07:50:40;;;;;;;2.93;2.67;;;17.90;99.90;;;;;;4983155;28;20933;-71
2021/08/19 07:53:06;;;;;;;3.50;3.10;;;17.90;99.90;;;;;;4997501;28;20470;-72
2021/08/19 07:55:32;;;;;;;4.07;3.47;;;17.90;99.90;;;;;;5000286;28;20477;-71
2021/08/19 07:57:58;;;;;;;3.40;3.10;;;17.90;99.90;;;;;;5001045;28;20282;-71
2021/08/19 08:00:26;;;;;;;3.30;3.00;;;18.00;99.90;;;;;;5000924;28;20958;-71
2021/08/19 08:02:52;;;;;;;3.80;3.27;;;18.00;99.90;;;;;;5002909;28;20225;-72
2021/08/19 08:05:18;;;;;;;5.50;3.57;;;18.10;99.90;;;;;;4982335;28;20492;-70
2021/08/19 08:07:44;;;;;;;4.70;3.83;;;18.10;99.90;;;;;;4985677;28;20476;-71
2021/08/19 08:10:11;;;;;;;5.20;4.10;;;18.10;99.90;;;;;;4984289;28;20471;-71
2021/08/19 08:12:36;;;;;;;4.87;3.70;;;18.20;99.90;;;;;;5001565;28;20240;-71
2021/08/19 08:15:03;;;;;;;4.37;3.93;;;18.20;99.90;;;;;;4983001;28;20517;-71
2021/08/19 08:17:31;;;;;;;4.67;4.27;;;18.20;99.90;;;;;;5000863;28;20230;-71
2021/08/19 08:19:57;;;;;;;4.40;4.00;;;18.40;99.90;;;;;;5084832;28;20483;-72
2021/08/19 08:22:23;;;;;;;4.37;3.97;;;18.40;99.90;;;;;;5089696;28;20548;-70
2021/08/19 08:24:48;;;;;;;5.07;4.30;;;18.40;99.90;;;;;;5105148;28;20225;-71
2021/08/19 08:27:14;;;;;;;5.17;4.40;;;18.50;99.90;;;;;;5102263;28;20839;-71
2021/08/19 08:29:40;;;;;;;6.80;5.17;;;18.50;99.90;;;;;;5052263;27;20702;-71
2021/08/19 08:32:07;;;;;;;4.10;3.60;;;18.60;99.90;;;;;;4987685;28;20241;-71
2021/08/19 08:34:34;;;;;;;5.03;4.30;;;18.60;99.90;;;;;;4989705;28;20493;-71
2021/08/19 08:37:01;;;;;;;6.17;4.90;;;18.60;99.90;;;;;;5014940;28;20447;-71
2021/08/19 08:39:27;;;;;;;6.63;4.47;;;18.70;99.90;;;;;;5044170;28;20443;-71
2021/08/19 08:41:53;;;;;;;5.80;4.57;;;18.70;99.90;;;;;;5053860;28;20538;-72
2021/08/19 08:44:20;;;;;;;5.40;4.90;;;18.70;99.90;;;;;;5005606;28;20542;-71
2021/08/19 08:46:47;;;;;;;5.13;4.63;;;18.70;99.90;;;;;;5013703;28;20309;-71
2021/08/19 08:49:14;;;;;;;5.80;5.10;;;18.80;99.90;;;;;;5029620;28;20451;-70
2021/08/19 08:51:47;;;;;;;7.33;5.67;;;18.80;99.90;;;;;;4990373;28;20457;-71
2021/08/19 08:54:12;;;;;;;6.50;5.10;;;18.80;99.90;;;;;;4991846;28;21070;-71
2021/08/19 08:56:38;;;;;;;6.70;5.30;;;18.90;99.90;;;;;;5013871;28;20615;-71
2021/08/19 08:59:05;;;;;;;5.30;4.80;;;19.00;99.90;;;;;;5026910;28;20228;-72
2021/08/19 09:01:30;;;;;;;6.23;4.60;;;19.10;99.90;;;;;;5022536;28;20220;-71
2021/08/19 09:03:57;;;;;;;7.47;5.93;;;19.10;99.90;;;;;;4983066;28;21040;-71
2021/08/19 09:06:40;;;;;;;5.93;5.10;;;19.20;99.90;;;;;;4998191;28;20225;-71
2021/08/19 09:09:24;;;;;;;5.07;4.57;;;19.30;99.90;;;;;;4986774;28;20446;-72
2021/08/19 09:11:55;;;;;;;5.47;4.97;;;19.30;99.90;;;;;;4985439;28;20486;-71
2021/08/19 09:14:27;;;;;;;5.13;4.63;;;19.30;99.90;;;;;;5022985;28;20464;-70
2021/08/19 09:16:54;;;;;;;5.80;5.10;;;19.40;99.90;;;;;;4983098;28;20468;-72
2021/08/19 09:19:21;;;;;;;9.07;5.40;;;19.50;99.90;;;;;;4984661;28;20464;-70
2021/08/19 09:21:53;;;;;;;4.80;4.40;;;19.50;99.90;;;;;;5001167;28;20464;-71
2021/08/19 09:24:20;;;;;;;4.67;3.70;;;19.60;99.90;;;;;;4984274;28;20483;-70
2021/08/19 09:26:48;;;;;;;6.50;4.40;;;19.70;99.90;;;;;;4999166;28;20472;-70
2021/08/19 09:29:26;;;;;;;5.57;4.57;;;19.70;99.90;;;;;;5001350;28;20456;-70
2021/08/19 09:32:07;;;;;;;5.77;3.90;;;19.70;99.90;;;;;;4984474;28;20464;-70
2021/08/19 09:34:33;;;;;;;6.67;3.97;;;19.80;99.90;;;;;;4986586;28;20455;-71
2021/08/19 09:37:09;;;;;;;5.00;4.30;;;19.80;99.90;;;;;;5089477;28;20481;-71
2021/08/19 09:39:41;;;;;;;5.53;4.33;;;19.90;99.90;;;;;;5087348;28;20271;-71
2021/08/19 09:42:08;;;;;;;5.53;3.90;;;19.90;99.90;;;;;;5103662;28;20476;-70
2021/08/19 09:44:40;;;;;;;5.00;3.80;;;19.90;99.90;;;;;;5086106;28;20460;-70
2021/08/19 09:47:26;;;;;;;4.63;4.20;;;20.00;99.90;;;;;;5092245;28;20555;-71
2021/08/19 09:50:10;;;;;;;5.20;4.20;;;20.00;99.90;;;;;;5098487;28;20987;-71
2021/08/19 09:52:35;;;;;;;6.30;3.60;;;20.10;99.90;;;;;;5086468;28;20505;-71
2021/08/19 09:55:29;;;;;;;4.30;3.90;;;20.10;99.90;;;;;;5100957;28;20451;-71
2021/08/19 09:57:58;;;;;;;4.40;3.37;;;20.20;99.90;;;;;;5102218;28;20214;-71
2021/08/19 10:00:29;;;;;;;4.07;3.67;;;20.20;99.90;;;;;;5087313;28;20475;-71
2021/08/19 10:02:56;;;;;;;4.60;4.20;;;20.30;99.90;;;;;;5102196;28;20454;-71
2021/08/19 10:05:22;;;;;;;6.50;3.70;;;20.30;99.90;;;;;;5108943;27;20805;-71
2021/08/19 10:07:48;;;;;;;3.57;3.20;;;20.40;99.90;;;;;;5092160;28;20486;-71
2021/08/19 10:10:13;;;;;;;3.23;2.90;;;20.40;99.90;;;;;;5095666;27;20459;-71
2021/08/19 10:12:42;;;;;;;7.07;3.13;;;20.50;99.90;;;;;;5025277;28;20243;-71
2021/08/19 10:15:09;;;;;;;4.13;2.67;;;20.50;99.90;;;;;;4974804;28;20222;-71
2021/08/19 10:17:36;;;;;;;3.60;2.73;;;20.50;99.90;;;;;;5001253;28;20612;-71
2021/08/19 10:20:08;;;;;;;2.77;2.57;;;20.50;99.90;;;;;;5093745;28;20463;-71
2021/08/19 10:22:35;;;;;;;2.67;2.47;;;20.60;99.90;;;;;;5108832;28;20467;-71
2021/08/19 10:25:04;;;;;;;3.10;2.80;;;20.60;99.90;;;;;;5086465;28;20517;-71
2021/08/19 10:27:32;;;;;;;3.13;2.83;;;20.60;99.90;;;;;;5023483;28;20508;-71
2021/08/19 10:30:07;;;;;;;3.70;3.33;;;20.70;99.90;;;;;;5000965;28;20453;-72
2021/08/19 10:32:38;;;;;;;3.93;2.90;;;20.70;99.90;;;;;;5002499;28;20459;-71
2021/08/19 10:35:09;;;;;;;3.10;2.80;;;20.80;99.90;;;;;;5001868;28;20498;-71
2021/08/19 10:37:47;;;;;;;3.50;3.20;;;20.80;99.90;;;;;;5003000;28;20495;-70
2021/08/19 10:40:25;;;;;;;3.17;2.67;;;20.90;99.90;;;;;;5002239;28;21125;-71
2021/08/19 10:42:56;;;;;;;2.53;2.33;;;21.00;99.90;;;;;;4987522;28;20468;-71
2021/08/19 10:45:27;;;;;;;3.90;3.13;;;21.00;99.90;;;;;;4986768;28;20488;-71
2021/08/19 10:48:02;;;;;;;3.73;2.73;;;21.10;99.90;;;;;;4997954;28;20484;-72
2021/08/19 10:50:30;;;;;;;3.10;2.80;;;21.10;99.90;;;;;;5005295;28;20467;-71
2021/08/19 10:52:58;;;;;;;3.07;2.77;;;21.10;99.90;;;;;;4985632;28;20468;-72
2021/08/19 10:55:25;;;;;;;4.20;3.50;;;21.20;99.90;;;;;;5002133;28;20547;-71
2021/08/19 10:57:56;;;;;;;3.20;2.90;;;21.20;99.90;;;;;;5003173;28;20464;-71
2021/08/19 11:00:40;;;;;;;3.07;2.80;;;21.20;99.90;;;;;;4995836;28;20576;-70
2021/08/19 11:03:06;;;;;;;3.27;2.97;;;21.20;99.90;;;;;;5001475;28;20475;-71
2021/08/19 11:05:31;;;;;;;3.30;2.73;;;21.30;99.90;;;;;;4978947;28;20878;-70
2021/08/19 11:07:59;;;;;;;3.20;2.97;;;21.30;99.90;;;;;;5001932;28;20233;-71
2021/08/19 11:10:27;;;;;;;3.20;2.90;;;21.30;99.90;;;;;;5047341;28;20304;-71
2021/08/19 11:13:15;;;;;;;4.50;2.93;;;21.30;99.90;;;;;;5087950;28;20483;-71
2021/08/19 11:15:46;;;;;;;2.53;2.33;;;21.30;99.90;;;;;;5046189;27;20467;-71
2021/08/19 11:18:25;;;;;;;3.40;2.37;;;21.30;99.90;;;;;;4969002;28;20990;-70
2021/08/19 11:20:51;;;;;;;3.53;3.23;;;21.30;99.90;;;;;;4989718;28;20483;-71
2021/08/19 11:23:17;;;;;;;3.63;3.33;;;21.20;99.90;;;;;;4995873;28;20458;-71
2021/08/19 11:25:44;;;;;;;3.00;2.70;;;21.20;99.90;;;;;;5079293;27;20845;-71
2021/08/19 11:28:11;;;;;;;5.83;3.03;;;21.10;99.90;;;;;;5032651;28;20236;-70
2021/08/19 11:30:40;;;;;;;3.70;3.00;;;21.10;99.90;;;;;;5059384;28;20543;-70
2021/08/19 11:33:17;;;;;;;3.17;2.87;;;21.10;99.90;;;;;;5078220;28;20448;-71
2021/08/19 11:35:45;;;;;;;3.40;3.10;;;21.10;99.90;;;;;;5005896;28;20471;-71
2021/08/19 11:38:22;;;;;;;2.40;2.20;;;21.10;99.90;;;;;;5019706;28;20459;-69
2021/08/19 11:40:50;;;;;;;2.70;2.50;;;21.10;99.90;;;;;;5040250;28;20582;-70
2021/08/19 11:43:31;;;;;;;3.13;2.90;;;21.10;99.90;;;;;;4999646;28;20453;-71
2021/08/19 11:46:16;;;;;;;3.30;3.00;;;21.10;99.90;;;;;;4992841;28;20472;-71
2021/08/19 11:48:52;;;;;;;5.53;2.63;;;21.10;99.90;;;;;;5008818;28;20486;-70
2021/08/19 11:51:28;;;;;;;3.43;3.07;;;21.10;99.90;;;;;;5028562;28;20530;-69
2021/08/19 11:53:59;;;;;;;2.93;2.63;;;21.10;99.90;;;;;;4988233;28;21079;-71
2021/08/19 11:56:34;;;;;;;3.40;3.10;;;21.10;99.90;;;;;;4984915;28;20493;-70
2021/08/19 11:59:04;;;;;;;3.87;3.30;;;21.20;99.90;;;;;;4992544;28;20471;-71
2021/08/19 12:01:31;;;;;;;3.40;3.10;;;21.10;99.90;;;;;;5004135;28;20468;-70
2021/08/19 12:03:57;;;;;;;3.33;3.03;;;21.20;99.90;;;;;;5014061;28;20517;-71
2021/08/19 12:06:25;;;;;;;3.40;3.10;;;21.20;99.90;;;;;;5080985;28;20965;-71
2021/08/19 12:08:52;;;;;;;3.20;2.90;;;21.20;99.90;;;;;;5017120;28;20459;-71
2021/08/19 12:11:28;;;;;;;3.43;3.13;;;21.30;99.90;;;;;;5071779;28;20859;-69
2021/08/19 12:13:55;;;;;;;3.53;3.20;;;21.30;99.90;;;;;;5010615;28;20969;-71
2021/08/19 12:16:28;;;;;;;3.87;3.03;;;21.40;99.90;;;;;;5049961;28;20455;-70
2021/08/19 12:19:19;;;;;;;2.70;2.50;;;21.50;99.90;;;;;;5072021;28;20467;-70
2021/08/19 12:21:54;;;;;;;3.17;2.90;;;21.70;99.90;;;;;;5079106;28;20464;-71
2021/08/19 12:24:29;;;;;;;3.10;2.80;;;21.90;99.90;;;;;;5023459;28;20529;-71
2021/08/19 12:27:02;;;;;;;2.70;2.50;;;22.00;99.90;;;;;;4983148;28;20476;-71
2021/08/19 12:29:29;;;;;;;3.10;2.67;;;22.00;99.90;;;;;;4982701;28;20464;-71
2021/08/19 12:31:57;;;;;;;2.90;2.60;;;22.10;99.90;;;;;;4997183;28;20470;-71
2021/08/19 12:34:23;;;;;;;2.80;2.60;;;22.10;99.90;;;;;;4998937;28;20491;-69
2021/08/19 12:36:50;;;;;;;3.17;2.87;;;22.20;99.90;;;;;;4982021;28;20587;-71
2021/08/19 12:39:18;;;;;;;2.60;2.40;;;22.20;99.90;;;;;;4993238;28;20457;-70
2021/08/19 12:41:45;;;;;;;2.63;2.43;;;22.20;99.90;;;;;;4996908;28;20467;-70
2021/08/19 12:44:15;;;;;;;2.73;2.53;;;22.10;99.90;;;;;;4999925;28;20467;-70
2021/08/19 12:46:43;;;;;;;2.73;2.50;;;22.20;99.90;;;;;;5001625;28;20467;-70
2021/08/19 12:49:32;;;;;;;3.77;3.07;;;22.20;99.90;;;;;;4999056;28;20452;-71